createdAt,value
2023-11-11T00:00:17.083Z,102300.44
2023-11-11T00:01:25.104Z,102281.63
2023-11-11T00:02:32.820Z,102307.63
2023-11-11T00:03:37.903Z,102296.13
2023-11-11T00:04:45.923Z,102283.38
2023-11-11T00:05:51.299Z,102299.84
2023-11-11T00:06:59.019Z,102311.28
2023-11-11T00:08:04.319Z,102311.50
2023-11-11T00:09:12.082Z,102312.28
2023-11-11T00:10:17.704Z,102317.31
2023-11-11T00:11:25.749Z,102315.63
2023-11-11T00:12:30.966Z,102320.78
2023-11-11T00:13:38.755Z,102322.28
2023-11-11T00:14:44.008Z,102314.47
2023-11-11T00:15:52.177Z,102303.97
2023-11-11T00:16:59.959Z,102316.94
2023-11-11T00:18:09.499Z,102327.59
2023-11-11T00:19:18.644Z,102115.47
2023-11-11T00:20:24.689Z,102311.41
2023-11-11T00:21:30.566Z,102316.63
2023-11-11T00:22:38.866Z,102330.47
2023-11-11T00:23:43.831Z,102323.47
2023-11-11T00:24:51.809Z,102325.19
2023-11-11T00:25:56.963Z,102324.53
2023-11-11T00:27:05.156Z,102327.31
2023-11-11T00:28:11.351Z,102315.06
2023-11-11T00:29:19.319Z,102326.50
2023-11-11T00:30:24.471Z,102323.91
2023-11-11T00:31:33.284Z,102292.19
2023-11-11T00:32:42.411Z,102283.56
2023-11-11T00:33:50.207Z,102345.22
2023-11-11T00:34:55.480Z,102340.84
2023-11-11T00:36:04.599Z,102345.28
2023-11-11T00:37:09.659Z,102338.53
2023-11-11T00:38:17.299Z,102333.59
2023-11-11T00:39:22.963Z,102327.53
2023-11-11T00:40:30.720Z,102343.78
2023-11-11T00:41:36.620Z,102373.38
2023-11-11T00:42:42.678Z,102327.94
2023-11-11T00:43:51.650Z,102347.75
2023-11-11T00:44:56.702Z,102352.38
2023-11-11T00:46:04.313Z,102364.88
2023-11-11T00:47:09.327Z,102341.59
2023-11-11T00:48:19.734Z,102336.25
2023-11-11T00:49:24.971Z,102346.25
2023-11-11T00:50:32.764Z,102357.72
2023-11-11T00:51:41.218Z,102346.47
2023-11-11T00:52:49.251Z,102348.03
2023-11-11T00:53:54.246Z,102356.66
2023-11-11T00:55:01.955Z,102361.75
2023-11-11T00:56:07.481Z,102358.34
2023-11-11T00:57:15.317Z,102357.44
2023-11-11T00:58:21.065Z,102357.69
2023-11-11T00:59:28.764Z,102362.94
2023-11-11T01:00:33.755Z,102367.47
2023-11-11T01:01:41.758Z,102362.22
2023-11-11T01:02:46.757Z,102374.50
2023-11-11T01:03:57.541Z,102362.31
2023-11-11T01:05:02.627Z,102373.00
2023-11-11T01:06:12.955Z,102382.66
2023-11-11T01:07:18.195Z,102373.00
2023-11-11T01:08:25.978Z,102386.06
2023-11-11T01:09:31.020Z,102391.56
2023-11-11T01:10:39.992Z,102396.13
2023-11-11T01:11:45.080Z,102371.69
2023-11-11T01:12:53.059Z,102382.00
2023-11-11T01:13:58.244Z,102386.56
2023-11-11T01:15:08.346Z,102397.94
2023-11-11T01:16:13.515Z,102389.06
2023-11-11T01:17:21.845Z,102383.78
2023-11-11T01:18:29.681Z,102372.47
2023-11-11T01:19:40.238Z,102382.50
2023-11-11T01:20:45.407Z,102372.06
2023-11-11T01:21:54.404Z,102385.72
2023-11-11T01:22:59.781Z,102372.78
2023-11-11T01:24:08.031Z,102393.53
2023-11-11T01:25:14.329Z,102397.25
2023-11-11T01:26:22.210Z,102184.66
2023-11-11T01:27:27.952Z,102387.00
2023-11-11T01:28:35.818Z,102388.91
2023-11-11T01:29:43.986Z,102362.84
2023-11-11T01:30:51.982Z,102208.13
2023-11-11T01:31:57.802Z,102402.78
2023-11-11T01:33:10.904Z,102396.84
2023-11-11T01:34:16.214Z,102394.94
2023-11-11T01:35:26.804Z,102405.47
2023-11-11T01:36:31.831Z,102407.25
2023-11-11T01:37:39.593Z,102395.41
2023-11-11T01:38:44.666Z,102413.69
2023-11-11T01:39:52.546Z,102411.22
2023-11-11T01:40:57.611Z,102415.56
2023-11-11T01:42:05.570Z,102403.63
2023-11-11T01:43:13.489Z,102424.56
2023-11-11T01:44:21.670Z,102426.16
2023-11-11T01:45:27.657Z,102406.13
2023-11-11T01:46:35.820Z,102410.41
2023-11-11T01:47:40.969Z,102414.81
2023-11-11T01:48:49.048Z,102435.50
2023-11-11T01:49:54.904Z,102429.44
2023-11-11T01:51:06.476Z,102220.09
2023-11-11T01:52:11.987Z,102439.75
2023-11-11T01:53:22.166Z,102435.16
2023-11-11T01:54:27.286Z,102424.91
2023-11-11T01:55:37.433Z,102436.00
2023-11-11T01:56:43.609Z,102425.56
2023-11-11T01:57:51.747Z,102431.50
2023-11-11T01:58:57.174Z,102428.66
2023-11-11T02:00:14.452Z,102430.41
2023-11-11T02:01:19.507Z,102423.41
2023-11-11T02:02:27.955Z,102421.69
2023-11-11T02:03:37.433Z,102423.53
2023-11-11T02:04:46.024Z,102428.13
2023-11-11T02:05:55.240Z,102421.97
2023-11-11T02:07:07.171Z,102413.63
2023-11-11T02:08:13.312Z,102417.69
2023-11-11T02:09:24.527Z,102418.53
2023-11-11T02:10:30.647Z,102376.81
2023-11-11T02:11:38.758Z,102422.53
2023-11-11T02:12:44.367Z,102419.97
2023-11-11T02:13:52.419Z,102424.16
2023-11-11T02:15:00.564Z,102353.38
2023-11-11T02:16:11.125Z,102418.03
2023-11-11T02:17:16.196Z,102421.31
2023-11-11T02:18:26.450Z,102406.00
2023-11-11T02:19:31.805Z,102401.94
2023-11-11T02:20:42.930Z,102410.31
2023-11-11T02:21:49.433Z,102400.53
2023-11-11T02:22:59.866Z,102405.72
2023-11-11T02:24:10.458Z,102407.13
2023-11-11T02:25:18.180Z,102409.78
2023-11-11T02:26:23.850Z,102413.28
2023-11-11T02:27:33.990Z,102418.66
2023-11-11T02:28:38.941Z,102412.66
2023-11-11T02:29:50.033Z,102417.94
2023-11-11T02:30:56.967Z,102417.97
2023-11-11T02:32:06.072Z,102413.44
2023-11-11T02:33:11.131Z,102385.78
2023-11-11T02:34:18.879Z,102424.06
2023-11-11T02:35:26.804Z,102416.31
2023-11-11T02:36:34.702Z,102412.19
2023-11-11T02:37:39.833Z,102413.78
2023-11-11T02:38:47.619Z,102415.34
2023-11-11T02:39:56.314Z,102418.06
2023-11-11T02:41:03.993Z,102400.91
2023-11-11T02:42:09.451Z,102407.13
2023-11-11T02:43:17.848Z,102416.56
2023-11-11T02:44:22.992Z,102427.78
2023-11-11T02:45:30.791Z,102425.16
2023-11-11T02:46:36.606Z,102418.03
2023-11-11T02:47:44.536Z,102420.69
2023-11-11T02:48:49.751Z,102413.56
2023-11-11T02:49:57.493Z,102386.97
2023-11-11T02:51:02.421Z,102406.56
2023-11-11T02:52:10.641Z,102424.72
2023-11-11T02:53:15.648Z,102426.34
2023-11-11T02:54:23.430Z,102346.66
2023-11-11T02:55:31.158Z,102408.28
2023-11-11T02:56:38.939Z,102371.09
2023-11-11T02:57:44.760Z,102423.03
2023-11-11T02:58:52.518Z,102428.09
2023-11-11T02:59:57.675Z,102422.41
2023-11-11T03:01:05.655Z,102424.19
2023-11-11T03:02:13.060Z,102411.94
2023-11-11T03:03:20.741Z,102421.25
2023-11-11T03:04:25.871Z,102404.50
2023-11-11T03:05:34.966Z,102417.47
2023-11-11T03:06:44.092Z,102347.19
2023-11-11T03:07:54.319Z,102401.00
2023-11-11T03:08:59.405Z,102407.19
2023-11-11T03:10:07.830Z,102416.13
2023-11-11T03:11:15.926Z,102414.34
2023-11-11T03:12:24.053Z,102391.81
2023-11-11T03:13:29.248Z,102410.66
2023-11-11T03:14:37.103Z,102392.31
2023-11-11T03:15:42.342Z,102405.28
2023-11-11T03:16:52.972Z,102411.53
2023-11-11T03:17:58.200Z,102394.34
2023-11-11T03:19:09.143Z,102403.13
2023-11-11T03:20:14.526Z,102338.84
2023-11-11T03:21:26.066Z,102403.06
2023-11-11T03:22:31.158Z,102415.13
2023-11-11T03:23:39.298Z,102400.47
2023-11-11T03:24:45.476Z,102356.56
2023-11-11T03:25:53.556Z,102413.88
2023-11-11T03:27:01.982Z,102394.59
2023-11-11T03:28:10.515Z,102410.06
2023-11-11T03:29:16.589Z,102403.25
2023-11-11T03:30:24.435Z,102418.84
2023-11-11T03:31:29.763Z,102418.81
2023-11-11T03:32:37.544Z,102404.03
2023-11-11T03:33:43.168Z,102415.53
2023-11-11T03:34:50.848Z,102420.75
2023-11-11T03:35:55.931Z,102410.25
2023-11-11T03:37:04.875Z,102417.19
2023-11-11T03:38:11.012Z,102340.03
2023-11-11T03:39:19.176Z,102409.00
2023-11-11T03:40:25.108Z,102420.88
2023-11-11T03:41:32.960Z,102417.59
2023-11-11T03:42:40.605Z,102413.19
2023-11-11T03:43:45.625Z,102227.97
2023-11-11T03:44:53.920Z,102412.38
2023-11-11T03:45:59.051Z,102415.59
2023-11-11T03:47:07.124Z,102414.66
2023-11-11T03:48:12.400Z,102369.47
2023-11-11T03:49:20.226Z,102416.19
2023-11-11T03:50:25.327Z,102414.44
2023-11-11T03:51:33.177Z,102412.59
2023-11-11T03:52:38.582Z,102412.00
2023-11-11T03:53:46.291Z,102395.72
2023-11-11T03:54:51.338Z,102413.16
2023-11-11T03:55:58.984Z,102324.63
2023-11-11T03:57:05.091Z,102411.22
2023-11-11T03:58:15.474Z,102411.13
2023-11-11T03:59:20.909Z,102408.50
2023-11-11T04:00:28.668Z,102397.19
2023-11-11T04:01:36.800Z,102407.59
2023-11-11T04:02:44.748Z,102409.94
2023-11-11T04:03:49.816Z,102375.34
2023-11-11T04:04:57.848Z,102392.63
2023-11-11T04:06:02.952Z,102407.41
2023-11-11T04:07:11.762Z,102404.91
2023-11-11T04:08:17.524Z,102403.91
2023-11-11T04:09:25.358Z,102409.28
2023-11-11T04:10:32.187Z,102416.59
2023-11-11T04:11:40.226Z,102396.25
2023-11-11T04:12:45.533Z,102398.06
2023-11-11T04:13:57.860Z,102410.09
2023-11-11T04:15:05.117Z,102403.13
2023-11-11T04:16:13.577Z,102403.91
2023-11-11T04:17:20.125Z,102399.81
2023-11-11T04:18:28.250Z,102409.09
2023-11-11T04:19:33.501Z,102411.75
2023-11-11T04:20:41.424Z,102409.28
2023-11-11T04:21:50.728Z,102404.22
2023-11-11T04:22:58.842Z,102397.09
2023-11-11T04:24:04.148Z,102347.75
2023-11-11T04:25:14.349Z,102384.78
2023-11-11T04:26:19.329Z,102418.63
2023-11-11T04:27:27.195Z,102413.66
2023-11-11T04:28:32.299Z,102403.13
2023-11-11T04:29:42.692Z,102396.41
2023-11-11T04:30:47.799Z,102412.97
2023-11-11T04:31:55.691Z,102405.13
2023-11-11T04:33:00.724Z,102412.81
2023-11-11T04:34:08.564Z,102410.06
2023-11-11T04:35:15.574Z,102334.97
2023-11-11T04:36:23.796Z,102421.53
2023-11-11T04:37:32.471Z,102414.56
2023-11-11T04:38:39.047Z,102398.84
2023-11-11T04:39:47.233Z,102423.13
2023-11-11T04:40:52.343Z,102428.66
2023-11-11T04:42:02.466Z,102415.53
2023-11-11T04:43:07.602Z,102434.53
2023-11-11T04:44:15.857Z,102418.75
2023-11-11T04:45:23.568Z,102228.44
2023-11-11T04:46:31.726Z,102434.41
2023-11-11T04:47:37.120Z,102429.28
2023-11-11T04:48:44.813Z,102242.44
2023-11-11T04:49:50.458Z,102386.84
2023-11-11T04:50:58.465Z,102289.22
2023-11-11T04:52:03.606Z,102382.78
2023-11-11T04:53:11.885Z,102452.13
2023-11-11T04:54:16.781Z,102397.38
2023-11-11T04:55:24.636Z,102448.41
2023-11-11T04:56:29.719Z,102445.75
2023-11-11T04:57:37.420Z,102436.25
2023-11-11T04:58:42.378Z,102448.75
2023-11-11T04:59:50.102Z,102448.75
2023-11-11T05:00:57.745Z,102456.50
2023-11-11T05:02:06.557Z,102441.69
2023-11-11T05:03:11.612Z,102437.44
2023-11-11T05:04:32.494Z,102449.56
2023-11-11T05:05:37.421Z,102460.09
2023-11-11T05:06:45.070Z,102460.97
2023-11-11T05:07:50.112Z,102453.78
2023-11-11T05:08:59.363Z,102442.44
2023-11-11T05:10:05.905Z,102455.44
2023-11-11T05:11:13.960Z,102459.69
2023-11-11T05:12:19.007Z,102455.06
2023-11-11T05:13:24.501Z,102367.41
2023-11-11T05:14:32.248Z,102444.47
2023-11-11T05:15:44.769Z,102451.28
2023-11-11T05:16:56.593Z,102449.84
2023-11-11T05:18:01.656Z,102409.38
2023-11-11T05:19:09.470Z,102461.44
2023-11-11T05:20:15.916Z,102452.75
2023-11-11T05:21:23.872Z,102466.53
2023-11-11T05:22:28.763Z,102269.16
2023-11-11T05:23:36.510Z,102472.53
2023-11-11T05:24:41.592Z,102452.59
2023-11-11T05:25:49.355Z,102448.25
2023-11-11T05:26:54.406Z,102444.69
2023-11-11T05:28:02.037Z,102457.81
2023-11-11T05:29:07.233Z,102461.31
2023-11-11T05:30:17.304Z,102463.00
2023-11-11T05:31:22.359Z,102457.84
2023-11-11T05:32:32.788Z,102454.25
2023-11-11T05:33:39.639Z,102461.28
2023-11-11T05:34:47.727Z,102454.34
2023-11-11T05:35:52.707Z,102457.06
2023-11-11T05:37:01.070Z,102454.31
2023-11-11T05:38:06.188Z,102450.91
2023-11-11T05:39:16.254Z,102443.13
2023-11-11T05:40:21.384Z,102444.09
2023-11-11T05:41:26.340Z,102435.50
2023-11-11T05:42:33.990Z,102439.91
2023-11-11T05:43:38.952Z,102419.13
2023-11-11T05:44:46.631Z,102445.97
2023-11-11T05:45:51.698Z,102437.59
2023-11-11T05:46:59.607Z,102436.66
2023-11-11T05:48:07.958Z,102446.16
2023-11-11T05:49:15.868Z,102431.31
2023-11-11T05:50:22.393Z,102441.66
2023-11-11T05:51:32.394Z,102425.16
2023-11-11T05:52:37.339Z,102443.41
2023-11-11T05:53:45.193Z,102426.84
2023-11-11T05:54:50.235Z,102434.66
2023-11-11T05:55:57.982Z,102451.19
2023-11-11T05:57:02.944Z,102449.44
2023-11-11T05:58:10.707Z,102445.97
2023-11-11T05:59:15.682Z,102444.28
2023-11-11T06:00:23.810Z,102459.22
2023-11-11T06:01:28.898Z,102450.56
2023-11-11T06:02:36.636Z,102458.41
2023-11-11T06:03:44.313Z,102454.91
2023-11-11T06:04:52.548Z,102439.97
2023-11-11T06:05:57.596Z,102424.41
2023-11-11T06:07:05.342Z,102131.94
2023-11-11T06:08:12.075Z,102449.66
2023-11-11T06:09:20.947Z,102460.97
2023-11-11T06:10:26.601Z,102448.19
2023-11-11T06:11:34.447Z,102341.13
2023-11-11T06:12:39.572Z,102435.47
2023-11-11T06:13:47.391Z,102454.41
2023-11-11T06:14:52.384Z,102456.09
2023-11-11T06:16:00.726Z,102471.88
2023-11-11T06:17:05.848Z,102464.88
2023-11-11T06:18:14.657Z,102466.97
2023-11-11T06:19:22.436Z,102454.00
2023-11-11T06:20:30.066Z,102469.63
2023-11-11T06:21:35.743Z,102478.47
2023-11-11T06:22:44.392Z,102477.63
2023-11-11T06:23:49.287Z,102458.47
2023-11-11T06:24:54.570Z,102483.66
2023-11-11T06:26:02.373Z,102477.50
2023-11-11T06:27:09.509Z,102480.00
2023-11-11T06:28:18.410Z,102471.38
2023-11-11T06:29:23.394Z,102466.91
2023-11-11T06:30:31.150Z,102476.66
2023-11-11T06:31:36.461Z,102483.66
2023-11-11T06:32:44.877Z,102481.84
2023-11-11T06:33:50.135Z,102480.16
2023-11-11T06:35:00.519Z,102218.75
2023-11-11T06:36:10.001Z,102331.22
2023-11-11T06:37:17.658Z,102475.94
2023-11-11T06:38:22.705Z,102479.28
2023-11-11T06:39:32.327Z,102469.75
2023-11-11T06:40:37.266Z,102467.25
2023-11-11T06:41:46.448Z,102471.56
2023-11-11T06:42:51.897Z,102282.88
2023-11-11T06:43:59.651Z,102468.84
2023-11-11T06:45:04.922Z,102469.81
2023-11-11T06:46:12.719Z,102469.00
2023-11-11T06:47:17.712Z,102484.88
2023-11-11T06:48:25.808Z,102478.06
2023-11-11T06:49:30.982Z,102482.34
2023-11-11T06:50:41.363Z,102475.16
2023-11-11T06:51:46.370Z,102476.91
2023-11-11T06:52:54.051Z,102468.22
2023-11-11T06:53:58.998Z,102470.84
2023-11-11T06:55:08.787Z,102463.81
2023-11-11T06:56:17.690Z,102462.84
2023-11-11T06:57:25.451Z,102451.47
2023-11-11T06:58:30.661Z,102121.03
2023-11-11T06:59:39.528Z,102465.50
2023-11-11T07:00:44.655Z,102467.38
2023-11-11T07:01:52.589Z,102467.38
2023-11-11T07:02:58.136Z,102467.38
2023-11-11T07:04:06.903Z,102473.56
2023-11-11T07:05:12.221Z,102471.03
2023-11-11T07:06:24.842Z,102426.16
2023-11-11T07:07:29.871Z,102477.31
2023-11-11T07:08:37.588Z,102472.00
2023-11-11T07:09:44.710Z,102458.03
2023-11-11T07:10:52.558Z,102452.78
2023-11-11T07:11:57.612Z,102467.59
2023-11-11T07:13:05.761Z,102463.22
2023-11-11T07:14:10.715Z,102446.78
2023-11-11T07:15:18.675Z,102465.03
2023-11-11T07:16:23.762Z,102461.44
2023-11-11T07:17:31.545Z,102471.75
2023-11-11T07:18:37.720Z,102463.13
2023-11-11T07:19:45.453Z,102475.16
2023-11-11T07:20:50.332Z,102473.56
2023-11-11T07:23:08.560Z,102417.38
2023-11-11T07:24:16.256Z,102483.22
2023-11-11T07:25:22.345Z,102476.22
2023-11-11T07:26:32.378Z,102482.34
2023-11-11T07:27:37.317Z,102267.72
2023-11-11T07:28:45.151Z,102482.44
2023-11-11T07:29:50.207Z,102486.00
2023-11-11T07:30:57.879Z,102493.13
2023-11-11T07:32:02.825Z,102487.78
2023-11-11T07:33:10.501Z,102492.22
2023-11-11T07:34:15.528Z,102482.72
2023-11-11T07:35:23.299Z,102499.38
2023-11-11T07:36:28.422Z,102495.13
2023-11-11T07:37:38.903Z,102474.06
2023-11-11T07:38:45.322Z,102321.72
2023-11-11T07:39:53.028Z,102485.44
2023-11-11T07:40:58.001Z,102488.91
2023-11-11T07:42:05.779Z,102498.31
2023-11-11T07:43:13.750Z,102489.00
2023-11-11T07:44:21.606Z,102521.38
2023-11-11T07:45:28.305Z,102502.09
2023-11-11T07:46:37.001Z,102496.78
2023-11-11T07:47:43.097Z,102506.44
2023-11-11T07:48:51.720Z,102500.28
2023-11-11T07:49:57.204Z,102504.75
2023-11-11T07:51:06.630Z,102510.09
2023-11-11T07:52:12.035Z,102499.66
2023-11-11T07:53:23.569Z,102497.25
2023-11-11T07:54:29.115Z,102484.22
2023-11-11T07:55:36.853Z,102514.66
2023-11-11T07:56:42.141Z,102510.19
2023-11-11T07:58:57.693Z,102512.72
2023-11-11T08:00:08.404Z,102508.31
2023-11-11T08:01:13.784Z,102450.41
2023-11-11T08:02:26.817Z,102504.97
2023-11-11T08:03:34.275Z,102511.09
2023-11-11T08:04:42.665Z,102510.31
2023-11-11T08:05:47.743Z,102524.34
2023-11-11T08:06:55.408Z,102499.19
2023-11-11T08:08:11.680Z,102513.03
2023-11-11T08:09:26.760Z,102518.13
2023-11-11T08:10:33.160Z,102507.72
2023-11-11T08:11:40.959Z,102515.75
2023-11-11T08:12:46.008Z,102519.19
2023-11-11T08:13:54.072Z,102511.34
2023-11-11T08:14:59.671Z,102514.78
2023-11-11T08:16:07.736Z,102471.38
2023-11-11T08:17:13.075Z,102519.97
2023-11-11T08:18:20.839Z,102503.47
2023-11-11T08:19:25.942Z,102505.97
2023-11-11T08:20:33.743Z,102511.16
2023-11-11T08:21:38.791Z,102468.72
2023-11-11T08:22:46.518Z,102496.31
2023-11-11T08:23:51.550Z,102512.78
2023-11-11T08:25:02.307Z,102503.22
2023-11-11T08:26:07.772Z,102492.78
2023-11-11T08:27:15.537Z,102511.94
2023-11-11T08:28:20.665Z,102511.88
2023-11-11T08:29:28.680Z,102510.91
2023-11-11T08:30:33.797Z,102486.50
2023-11-11T08:31:42.669Z,102509.84
2023-11-11T08:32:47.846Z,102506.31
2023-11-11T08:33:55.997Z,102494.16
2023-11-11T08:35:00.945Z,102506.31
2023-11-11T08:36:09.323Z,102498.47
2023-11-11T08:37:14.337Z,102508.88
2023-11-11T08:38:22.008Z,102497.56
2023-11-11T08:39:27.099Z,102512.41
2023-11-11T08:40:37.545Z,102509.03
2023-11-11T08:41:42.482Z,102511.91
2023-11-11T08:42:50.804Z,102505.16
2023-11-11T08:43:55.851Z,102511.94
2023-11-11T08:45:04.373Z,102500.59
2023-11-11T08:46:09.637Z,102510.94
2023-11-11T08:47:17.517Z,102511.75
2023-11-11T08:48:22.661Z,102513.69
2023-11-11T08:49:30.436Z,102505.94
2023-11-11T08:50:35.433Z,102508.25
2023-11-11T08:51:41.527Z,102488.16
2023-11-11T08:52:50.070Z,102490.63
2023-11-11T08:53:55.094Z,102507.06
2023-11-11T08:55:02.757Z,102503.34
2023-11-11T08:56:14.157Z,102509.56
2023-11-11T08:57:19.859Z,102290.34
2023-11-11T08:58:27.863Z,102508.59
2023-11-11T08:59:33.283Z,102510.25
2023-11-11T09:00:42.538Z,102503.41
2023-11-11T09:01:47.864Z,102520.28
2023-11-11T09:02:55.566Z,102515.66
2023-11-11T09:04:00.541Z,102513.06
2023-11-11T09:05:08.557Z,102515.53
2023-11-11T09:06:13.584Z,102512.88
2023-11-11T09:07:21.362Z,102461.00
2023-11-11T09:08:26.359Z,102506.25
2023-11-11T09:09:34.144Z,102508.81
2023-11-11T09:10:39.292Z,102510.41
2023-11-11T09:11:49.800Z,102519.97
2023-11-11T09:12:55.005Z,102514.03
2023-11-11T09:14:02.870Z,102523.56
2023-11-11T09:15:10.748Z,102524.44
2023-11-11T09:16:18.620Z,102534.09
2023-11-11T09:17:26.426Z,102545.44
2023-11-11T09:18:34.435Z,102535.03
2023-11-11T09:19:39.591Z,102534.22
2023-11-11T09:20:47.453Z,102535.22
2023-11-11T09:21:52.464Z,102542.44
2023-11-11T09:23:00.148Z,102530.34
2023-11-11T09:24:05.625Z,102532.97
2023-11-11T09:25:16.745Z,102546.81
2023-11-11T09:26:22.422Z,102538.06
2023-11-11T09:27:30.065Z,102539.81
2023-11-11T09:28:37.718Z,102548.59
2023-11-11T09:29:42.700Z,102554.81
2023-11-11T09:30:50.716Z,102553.19
2023-11-11T09:31:55.784Z,102545.31
2023-11-11T09:33:04.100Z,102552.25
2023-11-11T09:34:09.729Z,102555.09
2023-11-11T09:35:18.770Z,102556.81
2023-11-11T09:36:24.563Z,102570.75
2023-11-11T09:37:32.419Z,102567.16
2023-11-11T09:38:37.366Z,102568.09
2023-11-11T09:39:45.197Z,102562.91
2023-11-11T09:40:50.340Z,102554.25
2023-11-11T09:41:58.963Z,102566.41
2023-11-11T09:43:06.581Z,102552.47
2023-11-11T09:45:25.230Z,102580.31
2023-11-11T09:46:38.135Z,102569.09
2023-11-11T09:47:44.785Z,102580.22
2023-11-11T09:48:52.711Z,102576.72
2023-11-11T09:49:58.453Z,102565.50
2023-11-11T09:51:09.057Z,102581.13
2023-11-11T09:52:15.548Z,102524.00
2023-11-11T09:53:24.004Z,102578.47
2023-11-11T09:54:29.668Z,102580.97
2023-11-11T09:55:38.810Z,102567.19
2023-11-11T09:57:56.972Z,102582.72
2023-11-11T09:59:07.057Z,102600.19
2023-11-11T10:00:16.753Z,102603.75
2023-11-11T10:01:22.113Z,102603.81
2023-11-11T10:02:29.995Z,102597.78
2023-11-11T10:03:36.062Z,102596.03
2023-11-11T10:04:45.212Z,102594.28
2023-11-11T10:05:50.429Z,102579.59
2023-11-11T10:06:58.913Z,102594.19
2023-11-11T10:08:04.258Z,102576.94
2023-11-11T10:09:19.298Z,102600.25
2023-11-11T10:10:26.110Z,102592.41
2023-11-11T10:11:33.924Z,102571.63
2023-11-11T10:12:41.748Z,102588.13
2023-11-11T10:13:49.890Z,102545.59
2023-11-11T10:15:04.596Z,102584.59
2023-11-11T10:16:23.933Z,102585.41
2023-11-11T10:17:29.798Z,102556.81
2023-11-11T10:18:37.907Z,102580.16
2023-11-11T10:19:54.650Z,102573.31
2023-11-11T10:21:08.361Z,102594.03
2023-11-11T10:22:13.375Z,102581.13
2023-11-11T10:23:23.335Z,102581.06
2023-11-11T10:24:28.534Z,102405.81
2023-11-11T10:25:36.992Z,102572.19
2023-11-11T10:26:42.821Z,102525.44
2023-11-11T10:27:51.893Z,102587.91
2023-11-11T10:29:01.155Z,102591.50
2023-11-11T10:30:20.648Z,102579.53
2023-11-11T10:31:28.588Z,102578.56
2023-11-11T10:32:33.684Z,102587.28
2023-11-11T10:33:42.618Z,102472.16
2023-11-11T10:34:47.626Z,102598.56
2023-11-11T10:35:55.257Z,102586.31
2023-11-11T10:37:00.309Z,102596.81
2023-11-11T10:38:08.262Z,102600.25
2023-11-11T10:39:14.035Z,102523.94
2023-11-11T10:40:22.608Z,102576.38
2023-11-11T10:41:28.060Z,102611.66
2023-11-11T10:42:36.470Z,102614.31
2023-11-11T10:43:42.235Z,102613.47
2023-11-11T10:44:50.045Z,102614.28
2023-11-11T10:45:58.019Z,102606.47
2023-11-11T10:47:05.724Z,102594.34
2023-11-11T10:48:11.423Z,102603.16
2023-11-11T10:49:19.726Z,102627.66
2023-11-11T10:50:25.092Z,102625.22
2023-11-11T10:51:36.308Z,102635.69
2023-11-11T10:52:42.205Z,102615.59
2023-11-11T10:53:53.383Z,102463.25
2023-11-11T10:55:00.527Z,102618.00
2023-11-11T10:56:10.086Z,102604.00
2023-11-11T10:57:18.270Z,102609.91
2023-11-11T10:58:26.263Z,102590.78
2023-11-11T10:59:33.781Z,102583.81
2023-11-11T11:00:42.590Z,102603.69
2023-11-11T11:01:50.385Z,102616.72
2023-11-11T11:03:01.186Z,102626.31
2023-11-11T11:04:08.310Z,102642.97
2023-11-11T11:05:25.570Z,102634.03
2023-11-11T11:06:44.971Z,102484.94
2023-11-11T11:08:00.985Z,102628.00
2023-11-11T11:09:31.247Z,102636.81
2023-11-11T11:10:53.128Z,102636.72
2023-11-11T11:12:12.341Z,102634.22
2023-11-11T11:13:20.712Z,102642.09
2023-11-11T11:14:45.423Z,102641.47
2023-11-11T11:15:50.637Z,102650.16
2023-11-11T11:17:01.023Z,102647.56
2023-11-11T11:18:10.507Z,102632.84
2023-11-11T11:19:20.939Z,102651.91
2023-11-11T11:20:27.041Z,102634.50
2023-11-11T11:21:35.585Z,102638.81
2023-11-11T11:22:44.325Z,102591.25
2023-11-11T11:23:55.146Z,102644.31
2023-11-11T11:25:01.178Z,102661.72
2023-11-11T11:26:09.212Z,102661.78
2023-11-11T11:27:15.144Z,102652.22
2023-11-11T11:28:28.301Z,102583.66
2023-11-11T11:29:33.669Z,102647.97
2023-11-11T11:30:41.427Z,102646.22
2023-11-11T11:32:15.919Z,102653.09
2023-11-11T11:33:23.098Z,102596.72
2023-11-11T11:34:30.901Z,102662.66
2023-11-11T11:35:39.446Z,102664.47
2023-11-11T11:36:59.446Z,102655.91
2023-11-11T11:38:05.250Z,102651.59
2023-11-11T11:39:13.001Z,102641.22
2023-11-11T11:40:19.519Z,102649.13
2023-11-11T11:41:30.434Z,102660.38
2023-11-11T11:42:39.110Z,102668.19
2023-11-11T11:43:47.734Z,102531.94
2023-11-11T11:44:56.667Z,102664.75
2023-11-11T11:46:02.529Z,102671.84
2023-11-11T11:47:10.938Z,102679.75
2023-11-11T11:48:18.652Z,102660.50
2023-11-11T11:49:26.405Z,102672.63
2023-11-11T11:50:31.558Z,102664.63
2023-11-11T11:51:55.340Z,102458.06
2023-11-11T11:53:00.782Z,102667.09
2023-11-11T11:54:08.973Z,102668.06
2023-11-11T11:55:14.058Z,102682.84
2023-11-11T11:56:34.365Z,102700.28
2023-11-11T11:57:55.823Z,102634.28
2023-11-11T11:59:05.538Z,102700.44
2023-11-11T12:00:15.698Z,102688.09
2023-11-11T12:01:28.077Z,102495.63
2023-11-11T12:02:34.694Z,102690.69
2023-11-11T12:03:46.283Z,102699.41
2023-11-11T12:04:52.704Z,102691.47
2023-11-11T12:06:00.423Z,102689.72
2023-11-11T12:07:05.616Z,102694.97
2023-11-11T12:08:13.635Z,102704.69
2023-11-11T12:09:19.720Z,102702.94
2023-11-11T12:10:27.916Z,102705.63
2023-11-11T12:11:34.180Z,102704.69
2023-11-11T12:12:41.920Z,102705.53
2023-11-11T12:13:46.942Z,102716.06
2023-11-11T12:14:56.235Z,102694.41
2023-11-11T12:16:01.221Z,102656.25
2023-11-11T12:17:09.226Z,102724.91
2023-11-11T12:18:15.436Z,102699.63
2023-11-11T12:19:26.977Z,102722.28
2023-11-11T12:20:41.404Z,102723.97
2023-11-11T12:21:51.026Z,102726.47
2023-11-11T12:22:56.149Z,102722.97
2023-11-11T12:24:01.115Z,102723.75
2023-11-11T12:25:09.577Z,102726.34
2023-11-11T12:26:16.252Z,102725.47
2023-11-11T12:27:24.300Z,102727.31
2023-11-11T12:28:30.528Z,102740.25
2023-11-11T12:29:45.032Z,102735.78
2023-11-11T12:30:50.045Z,102728.88
2023-11-11T12:31:59.345Z,102738.34
2023-11-11T12:33:05.933Z,102743.50
2023-11-11T12:34:14.097Z,102741.72
2023-11-11T12:35:25.188Z,102745.09
2023-11-11T12:36:33.038Z,102723.47
2023-11-11T12:37:41.698Z,102758.47
2023-11-11T12:38:49.718Z,102745.31
2023-11-11T12:39:55.482Z,102757.34
2023-11-11T12:41:04.179Z,102736.47
2023-11-11T12:42:09.334Z,102754.50
2023-11-11T12:43:17.950Z,102753.66
2023-11-11T12:44:27.934Z,102751.03
2023-11-11T12:45:33.101Z,102748.22
2023-11-11T12:46:44.942Z,102764.75
2023-11-11T12:47:53.741Z,102769.94
2023-11-11T12:48:58.876Z,102761.31
2023-11-11T12:50:07.207Z,102750.81
2023-11-11T12:51:32.469Z,102770.75
2023-11-11T12:52:40.186Z,102762.03
2023-11-11T12:53:45.947Z,102779.59
2023-11-11T12:54:53.606Z,102777.03
2023-11-11T12:56:08.747Z,102777.06
2023-11-11T12:57:16.452Z,102776.88